createdAt,value
2017-05-22T00:00:09.252Z,1016.3
2017-05-22T00:01:09.260Z,1016.3
2017-05-22T00:02:09.265Z,1016.3
2017-05-22T00:03:09.274Z,1016.32
2017-05-22T00:04:09.282Z,1016.35
2017-05-22T00:05:09.290Z,1016.34
2017-05-22T00:06:09.348Z,1016.36
2017-05-22T00:07:09.305Z,1016.35
2017-05-22T00:08:09.312Z,1016.35
2017-05-22T00:09:09.320Z,1016.37
2017-05-22T00:10:09.327Z,1016.37
2017-05-22T00:11:09.335Z,1016.33
2017-05-22T00:12:09.343Z,1016.31
2017-05-22T00:13:09.350Z,1016.34
2017-05-22T00:14:09.359Z,1016.36
2017-05-22T00:15:09.366Z,1016.35
2017-05-22T00:16:09.423Z,1016.35
2017-05-22T00:17:09.381Z,1016.37
2017-05-22T00:18:09.388Z,1016.37
2017-05-22T00:19:09.447Z,1016.34
2017-05-22T00:20:09.403Z,1016.31
2017-05-22T00:21:09.414Z,1016.31
2017-05-22T00:22:09.419Z,1016.28
2017-05-22T00:23:09.428Z,1016.29
2017-05-22T00:24:09.435Z,1016.28
2017-05-22T00:25:09.447Z,1016.29
2017-05-22T00:26:09.449Z,1016.31
2017-05-22T00:27:09.457Z,1016.29
2017-05-22T00:28:09.465Z,1016.28
2017-05-22T00:29:09.473Z,1016.28
2017-05-22T00:30:09.480Z,1016.25
2017-05-22T00:31:09.488Z,1016.23
2017-05-22T00:32:09.494Z,1016.21
2017-05-22T00:33:09.502Z,1016.19
2017-05-22T00:34:09.511Z,1016.25
2017-05-22T00:35:09.518Z,1016.18
2017-05-22T00:36:09.525Z,1016.2
2017-05-22T00:37:09.537Z,1016.16
2017-05-22T00:38:09.542Z,1016.19
2017-05-22T00:39:09.549Z,1016.17
2017-05-22T00:40:09.555Z,1016.16
2017-05-22T00:41:09.565Z,1016.13
2017-05-22T00:42:09.572Z,1016.13
2017-05-22T00:43:09.577Z,1016.14
2017-05-22T00:44:09.586Z,1016.12
2017-05-22T00:45:09.594Z,1016.15
2017-05-22T00:46:09.602Z,1016.15
2017-05-22T00:47:09.609Z,1016.11
2017-05-22T00:48:09.617Z,1016.11
2017-05-22T00:49:09.625Z,1016.11
2017-05-22T00:50:09.683Z,1016.08
2017-05-22T00:51:09.640Z,1016.06
2017-05-22T00:52:09.648Z,1016.08
2017-05-22T00:53:09.656Z,1016.07
2017-05-22T00:54:09.662Z,1016.09
2017-05-22T00:55:09.670Z,1016.06
2017-05-22T00:56:09.681Z,1016.02
2017-05-22T00:57:09.686Z,1016.04
2017-05-22T00:58:09.693Z,1016.05
2017-05-22T00:59:09.700Z,1016.04
2017-05-22T01:00:09.708Z,1016.04
2017-05-22T01:01:09.766Z,1016.05
2017-05-22T01:02:09.723Z,1016.06
2017-05-22T01:03:09.730Z,1016.05
2017-05-22T01:04:09.740Z,1016.05
2017-05-22T01:05:09.747Z,1016.03
2017-05-22T01:06:09.755Z,1016.02
2017-05-22T01:07:09.761Z,1015.98
2017-05-22T01:08:09.769Z,1015.95
2017-05-22T01:09:09.776Z,1015.94
2017-05-22T01:10:09.784Z,1015.94
2017-05-22T01:11:09.792Z,1015.9
2017-05-22T01:12:09.798Z,1015.94
2017-05-22T01:13:09.805Z,1015.92
2017-05-22T01:14:09.812Z,1015.91
2017-05-22T01:15:09.824Z,1015.95
2017-05-22T01:16:09.829Z,1015.94
2017-05-22T01:17:09.837Z,1015.9
2017-05-22T01:18:09.845Z,1015.88
2017-05-22T01:19:09.903Z,1015.89
2017-05-22T01:20:09.909Z,1015.85
2017-05-22T01:21:09.868Z,1015.86
2017-05-22T01:22:09.874Z,1015.87
2017-05-22T01:23:09.883Z,1015.88
2017-05-22T01:24:09.889Z,1015.86
2017-05-22T01:25:09.899Z,1015.85
2017-05-22T01:26:09.907Z,1015.87
2017-05-22T01:27:09.914Z,1015.84
2017-05-22T01:28:09.920Z,1015.85
2017-05-22T01:29:09.929Z,1015.85
2017-05-22T01:30:09.937Z,1015.85
2017-05-22T01:31:09.945Z,1015.84
2017-05-22T01:32:09.951Z,1015.87
2017-05-22T01:33:09.959Z,1015.85
2017-05-22T01:34:09.967Z,1015.84
2017-05-22T01:35:09.975Z,1015.79
2017-05-22T01:36:09.982Z,1015.86
2017-05-22T01:37:09.990Z,1015.84
2017-05-22T01:38:09.997Z,1015.82
2017-05-22T01:39:10.005Z,1015.83
2017-05-22T01:40:10.013Z,1015.8
2017-05-22T01:41:10.021Z,1015.79
2017-05-22T01:42:10.026Z,1015.8
2017-05-22T01:43:10.035Z,1015.78
2017-05-22T01:44:10.042Z,1015.78
2017-05-22T01:45:10.049Z,1015.75
2017-05-22T01:46:10.057Z,1015.73
2017-05-22T01:47:10.066Z,1015.74
2017-05-22T01:48:10.121Z,1015.76
2017-05-22T01:49:10.078Z,1015.73
2017-05-22T01:50:10.088Z,1015.7
2017-05-22T01:51:10.095Z,1015.73
2017-05-22T01:52:10.102Z,1015.71
2017-05-22T01:53:10.119Z,1015.69
2017-05-22T01:54:10.117Z,1015.67
2017-05-22T01:55:10.124Z,1015.68
2017-05-22T01:56:10.133Z,1015.69
2017-05-22T01:57:10.191Z,1015.66
2017-05-22T01:58:10.146Z,1015.69
2017-05-22T01:59:10.156Z,1015.67
2017-05-22T02:00:10.162Z,1015.65
2017-05-22T02:01:10.170Z,1015.64
2017-05-22T02:02:10.178Z,1015.62
2017-05-22T02:03:10.236Z,1015.64
2017-05-22T02:04:10.193Z,1015.6
2017-05-22T02:05:10.199Z,1015.57
2017-05-22T02:06:10.208Z,1015.61
2017-05-22T02:07:10.214Z,1015.57
2017-05-22T02:08:10.223Z,1015.57
2017-05-22T02:09:10.230Z,1015.58
2017-05-22T02:10:10.250Z,1015.53
2017-05-22T02:11:10.246Z,1015.57
2017-05-22T02:12:10.254Z,1015.58
2017-05-22T02:13:10.260Z,1015.55
2017-05-22T02:14:10.269Z,1015.52
2017-05-22T02:15:10.275Z,1015.52
2017-05-22T02:16:10.284Z,1015.49
2017-05-22T02:17:10.290Z,1015.47
2017-05-22T02:18:10.298Z,1015.46
2017-05-22T02:19:10.307Z,1015.47
2017-05-22T02:20:10.314Z,1015.49
2017-05-22T02:21:10.322Z,1015.49
2017-05-22T02:22:10.328Z,1015.51
2017-05-22T02:23:10.337Z,1015.49
2017-05-22T02:24:10.345Z,1015.43
2017-05-22T02:25:10.352Z,1015.49
2017-05-22T02:26:10.358Z,1015.43
2017-05-22T02:27:10.367Z,1015.39
2017-05-22T02:28:10.377Z,1015.4
2017-05-22T02:29:10.381Z,1015.37
2017-05-22T02:30:10.389Z,1015.38
2017-05-22T02:31:10.397Z,1015.34
2017-05-22T02:32:10.406Z,1015.36
2017-05-22T02:33:10.410Z,1015.35
2017-05-22T02:34:10.419Z,1015.31
2017-05-22T02:35:10.428Z,1015.32
2017-05-22T02:36:10.437Z,1015.26
2017-05-22T02:37:10.442Z,1015.27
2017-05-22T02:38:10.450Z,1015.27
2017-05-22T02:39:10.458Z,1015.27
2017-05-22T02:40:10.465Z,1015.26
2017-05-22T02:41:10.475Z,1015.2
2017-05-22T02:42:10.481Z,1015.19
2017-05-22T02:43:10.490Z,1015.19
2017-05-22T02:44:10.496Z,1015.2
2017-05-22T02:45:10.505Z,1015.15
2017-05-22T02:46:10.511Z,1015.14
2017-05-22T02:47:10.518Z,1015.19
2017-05-22T02:48:10.525Z,1015.17
2017-05-22T02:49:10.583Z,1015.14
2017-05-22T02:50:10.541Z,1015.11
2017-05-22T02:51:10.549Z,1015.09
2017-05-22T02:52:10.556Z,1015.04
2017-05-22T02:53:10.562Z,1015.15
2017-05-22T02:54:10.573Z,1015.1
2017-05-22T02:55:10.580Z,1015.09
2017-05-22T02:56:10.585Z,1015.08
2017-05-22T02:57:10.594Z,1015.09
2017-05-22T02:58:10.601Z,1015.06
2017-05-22T02:59:10.608Z,1015.05
2017-05-22T03:00:10.616Z,1015.02
2017-05-22T03:01:10.624Z,1015.03
2017-05-22T03:02:10.630Z,1015.04
2017-05-22T03:03:10.637Z,1015
2017-05-22T03:04:10.645Z,1015.03
2017-05-22T03:05:10.654Z,1015.04
2017-05-22T03:06:10.661Z,1015.03
2017-05-22T03:07:10.667Z,1015
2017-05-22T03:08:10.674Z,1015.04
2017-05-22T03:09:10.682Z,1015.02
2017-05-22T03:10:10.690Z,1015.06
2017-05-22T03:11:10.699Z,1015.06
2017-05-22T03:12:10.706Z,1015.05
2017-05-22T03:13:10.712Z,1015.04
2017-05-22T03:14:10.719Z,1015.06
2017-05-22T03:15:10.729Z,1015.06
2017-05-22T03:16:10.736Z,1015
2017-05-22T03:17:10.742Z,1015.02
2017-05-22T03:18:10.800Z,1015.01
2017-05-22T03:19:10.758Z,1014.98
2017-05-22T03:20:10.764Z,1014.98
2017-05-22T03:21:10.772Z,1015.02
2017-05-22T03:22:10.779Z,1015
2017-05-22T03:23:10.787Z,1015
2017-05-22T03:24:10.794Z,1014.95
2017-05-22T03:25:10.801Z,1014.96
2017-05-22T03:26:10.809Z,1014.93
2017-05-22T03:27:10.867Z,1014.91
2017-05-22T03:28:10.823Z,1014.92
2017-05-22T03:29:10.830Z,1014.93
2017-05-22T03:30:10.838Z,1014.9
2017-05-22T03:31:10.845Z,1014.93
2017-05-22T03:32:10.851Z,1014.91
2017-05-22T03:33:10.910Z,1014.92
2017-05-22T03:34:10.866Z,1014.9
2017-05-22T03:35:10.875Z,1014.95
2017-05-22T03:36:10.882Z,1014.92
2017-05-22T03:37:10.890Z,1014.93
2017-05-22T03:38:10.898Z,1014.96
2017-05-22T03:39:10.904Z,1014.95
2017-05-22T03:40:10.911Z,1014.94
2017-05-22T03:41:10.919Z,1014.95
2017-05-22T03:42:10.925Z,1014.97
2017-05-22T03:43:10.932Z,1014.96
2017-05-22T03:44:10.943Z,1014.96
2017-05-22T03:45:10.948Z,1014.96
2017-05-22T03:46:10.955Z,1014.96
2017-05-22T03:47:10.963Z,1014.92
2017-05-22T03:48:11.038Z,1014.96
2017-05-22T03:49:10.978Z,1014.95
2017-05-22T03:50:11.034Z,1014.94
2017-05-22T03:51:10.992Z,1014.94
2017-05-22T03:52:10.999Z,1014.95
2017-05-22T03:53:11.005Z,1014.92
2017-05-22T03:54:11.064Z,1014.93
2017-05-22T03:55:11.023Z,1014.91
2017-05-22T03:56:11.030Z,1014.93
2017-05-22T03:57:11.036Z,1014.9
2017-05-22T03:58:11.044Z,1014.91
2017-05-22T03:59:11.049Z,1014.93
2017-05-22T04:00:11.058Z,1014.97
2017-05-22T04:01:11.065Z,1014.95
2017-05-22T04:02:11.074Z,1015
2017-05-22T04:03:11.081Z,1014.99
2017-05-22T04:04:11.087Z,1014.99
2017-05-22T04:05:11.094Z,1014.96
2017-05-22T04:06:11.102Z,1014.97
2017-05-22T04:07:11.111Z,1015
2017-05-22T04:08:11.117Z,1014.96
2017-05-22T04:09:11.125Z,1014.96
2017-05-22T04:10:11.132Z,1014.97
2017-05-22T04:11:11.139Z,1014.95
2017-05-22T04:12:11.146Z,1014.94
2017-05-22T04:13:11.154Z,1014.94
2017-05-22T04:14:11.162Z,1014.96
2017-05-22T04:15:11.167Z,1014.94
2017-05-22T04:16:11.175Z,1014.93
2017-05-22T04:17:11.184Z,1014.95
2017-05-22T04:18:11.194Z,1014.92
2017-05-22T04:19:11.197Z,1014.94
2017-05-22T04:20:11.205Z,1014.9
2017-05-22T04:21:11.211Z,1014.92
2017-05-22T04:22:11.220Z,1014.94
2017-05-22T04:23:11.228Z,1014.93
2017-05-22T04:24:11.235Z,1014.97
2017-05-22T04:25:11.241Z,1014.92
2017-05-22T04:26:11.249Z,1014.91
2017-05-22T04:27:11.257Z,1014.92
2017-05-22T04:28:11.264Z,1014.89
2017-05-22T04:29:11.270Z,1014.9
2017-05-22T04:30:11.278Z,1014.89
2017-05-22T04:31:11.286Z,1014.89
2017-05-22T04:32:11.293Z,1014.86
2017-05-22T04:33:11.301Z,1014.84
2017-05-22T04:34:11.308Z,1014.85
2017-05-22T04:35:11.315Z,1014.83
2017-05-22T04:36:11.324Z,1014.84
2017-05-22T04:37:11.331Z,1014.83
2017-05-22T04:38:11.339Z,1014.82
2017-05-22T04:39:11.347Z,1014.9
2017-05-22T04:40:11.403Z,1014.84
2017-05-22T04:41:11.367Z,1014.81
2017-05-22T04:42:11.370Z,1014.86
2017-05-22T04:43:11.375Z,1014.85
2017-05-22T04:44:11.383Z,1014.91
2017-05-22T04:45:11.391Z,1014.87
2017-05-22T04:46:11.399Z,1014.87
2017-05-22T04:47:11.407Z,1014.93
2017-05-22T04:48:11.414Z,1015
2017-05-22T04:49:11.422Z,1015.14
2017-05-22T04:50:11.430Z,1015.25
2017-05-22T04:51:11.438Z,1015.29
2017-05-22T04:52:11.445Z,1015.3
2017-05-22T04:53:11.453Z,1015.31
2017-05-22T04:54:11.462Z,1015.34
2017-05-22T04:55:11.469Z,1015.29
2017-05-22T04:56:11.478Z,1015.32
2017-05-22T04:57:11.486Z,1015.31
2017-05-22T04:58:11.496Z,1015.29
2017-05-22T04:59:11.503Z,1015.21
2017-05-22T05:00:11.512Z,1015.09
2017-05-22T05:01:11.520Z,1015.01
2017-05-22T05:02:11.530Z,1014.95
2017-05-22T05:03:11.537Z,1015.01
2017-05-22T05:04:11.546Z,1015.07
2017-05-22T05:05:11.556Z,1015.12
2017-05-22T05:06:11.564Z,1015.14
2017-05-22T05:07:11.572Z,1015.15
2017-05-22T05:08:11.581Z,1015.2
2017-05-22T05:09:11.590Z,1015.28
2017-05-22T05:10:11.600Z,1015.32
2017-05-22T05:11:11.607Z,1015.28
2017-05-22T05:12:11.616Z,1015.3
2017-05-22T05:13:11.626Z,1015.34
2017-05-22T05:14:11.636Z,1015.34
2017-05-22T05:15:11.645Z,1015.32
2017-05-22T05:16:11.654Z,1015.38
2017-05-22T05:17:11.662Z,1015.38
2017-05-22T05:18:11.672Z,1015.35
2017-05-22T05:19:11.681Z,1015.34
2017-05-22T05:20:11.742Z,1015.36
2017-05-22T05:21:11.750Z,1015.36
2017-05-22T05:22:11.710Z,1015.33
2017-05-22T05:23:11.720Z,1015.36
2017-05-22T05:24:11.728Z,1015.33
2017-05-22T05:25:11.739Z,1015.36
2017-05-22T05:26:11.749Z,1015.37
2017-05-22T05:27:11.760Z,1015.37
2017-05-22T05:28:11.769Z,1015.41
2017-05-22T05:29:11.778Z,1015.43
2017-05-22T05:30:11.789Z,1015.37
2017-05-22T05:31:11.798Z,1015.36
2017-05-22T05:32:11.807Z,1015.38
2017-05-22T05:33:11.817Z,1015.43
2017-05-22T05:34:11.829Z,1015.43
2017-05-22T05:35:11.839Z,1015.38
2017-05-22T05:36:11.847Z,1015.42
2017-05-22T05:37:11.858Z,1015.45
2017-05-22T05:38:11.874Z,1015.42
2017-05-22T05:39:11.878Z,1015.49
2017-05-22T05:40:11.938Z,1015.5
2017-05-22T05:41:11.900Z,1015.45
2017-05-22T05:42:11.910Z,1015.5
2017-05-22T05:43:11.921Z,1015.49
2017-05-22T05:44:11.931Z,1015.28
2017-05-22T05:45:11.941Z,1015.26
2017-05-22T05:46:12.001Z,1015.54
2017-05-22T05:47:12.011Z,1015.6
2017-05-22T05:48:11.970Z,1015.53
2017-05-22T05:49:11.982Z,1015.54
2017-05-22T05:50:11.991Z,1015.53
2017-05-22T05:51:12.002Z,1015.5
2017-05-22T05:52:12.012Z,1015.58
2017-05-22T05:53:12.022Z,1015.63
2017-05-22T05:54:12.033Z,1015.37
2017-05-22T05:55:12.044Z,1015.37
2017-05-22T05:56:12.052Z,1015.7
2017-05-22T05:57:12.065Z,1015.68
2017-05-22T05:58:12.080Z,1015.64
2017-05-22T05:59:12.086Z,1015.73
2017-05-22T06:00:12.096Z,1015.72
2017-05-22T06:01:12.106Z,1015.73
2017-05-22T06:02:12.118Z,1015.67
2017-05-22T06:03:12.177Z,1015.74
2017-05-22T06:04:12.139Z,1015.7
2017-05-22T06:05:12.148Z,1015.1
2017-05-22T06:06:12.159Z,1015.42
2017-05-22T06:07:12.171Z,1015.77
2017-05-22T06:08:12.182Z,1015.39
2017-05-22T06:09:12.191Z,1014.85
2017-05-22T06:10:12.202Z,1015.07
2017-05-22T06:11:12.263Z,1014.85
2017-05-22T06:12:12.223Z,1014.94
2017-05-22T06:13:12.234Z,1015.68
2017-05-22T06:14:12.244Z,1015.76
2017-05-22T06:15:12.265Z,1015.09
2017-05-22T06:16:12.264Z,1015.49
2017-05-22T06:17:12.275Z,1015.81
2017-05-22T06:18:12.337Z,1015.86
2017-05-22T06:19:12.297Z,1015.87
2017-05-22T06:20:12.308Z,1015.86
2017-05-22T06:21:12.318Z,1015.86
2017-05-22T06:22:12.329Z,1015.88
2017-05-22T06:23:12.338Z,1015.89
2017-05-22T06:24:12.349Z,1015.93
2017-05-22T06:25:12.365Z,1015.93
2017-05-22T06:26:12.423Z,1015.96
2017-05-22T06:27:12.433Z,1016.07
2017-05-22T06:28:12.444Z,1016.08
2017-05-22T06:29:12.407Z,1016.08
2017-05-22T06:30:12.416Z,1016.09
2017-05-22T06:31:12.427Z,1016.14
2017-05-22T06:32:12.439Z,1016.21
2017-05-22T06:33:12.451Z,1016.23
2017-05-22T06:34:12.461Z,1016.27
2017-05-22T06:35:12.473Z,1016.33
2017-05-22T06:36:12.483Z,1016.26
2017-05-22T06:37:12.497Z,1016.21
2017-05-22T06:38:12.505Z,1016.21
2017-05-22T06:39:12.517Z,1016.12
2017-05-22T06:40:12.528Z,1016.28
2017-05-22T06:41:12.540Z,1016.35
2017-05-22T06:42:12.552Z,1016.42
2017-05-22T06:43:12.563Z,1016.35
2017-05-22T06:44:12.576Z,1016.39
2017-05-22T06:45:12.586Z,1016.41
2017-05-22T06:46:12.596Z,1016.52
2017-05-22T06:47:12.610Z,1016.46
2017-05-22T06:48:12.622Z,1016.39
2017-05-22T06:49:12.633Z,1016.37
2017-05-22T06:50:12.645Z,1016.4
2017-05-22T06:51:12.656Z,1016.43
2017-05-22T06:52:12.666Z,1016.49
2017-05-22T06:53:12.678Z,1016.48
2017-05-22T06:54:12.690Z,1016.51
2017-05-22T06:55:12.702Z,1016.48
2017-05-22T06:56:12.714Z,1016.46
2017-05-22T06:57:12.727Z,1016.43
2017-05-22T06:58:12.739Z,1016.28
2017-05-22T06:59:12.752Z,1016.28
2017-05-22T07:00:12.761Z,1016.32
2017-05-22T07:01:12.771Z,1016.29
2017-05-22T07:02:12.784Z,1016.19
2017-05-22T07:03:12.796Z,1016.16
2017-05-22T07:04:12.808Z,1016.09
2017-05-22T07:05:12.821Z,1016.04
2017-05-22T07:06:12.833Z,1015.96
2017-05-22T07:07:12.851Z,1016.1
2017-05-22T07:08:12.858Z,1016.03
2017-05-22T07:09:12.871Z,1016.03
2017-05-22T07:10:12.881Z,1015.9
2017-05-22T07:11:12.943Z,1015.91
2017-05-22T07:12:12.905Z,1015.82
2017-05-22T07:13:12.967Z,1015.86
2017-05-22T07:14:12.929Z,1015.85
2017-05-22T07:15:12.942Z,1015.82
2017-05-22T07:16:12.954Z,1015.79
2017-05-22T07:17:12.965Z,1015.75
2017-05-22T07:18:12.977Z,1015.74
2017-05-22T07:19:12.989Z,1015.8
2017-05-22T07:20:13.002Z,1015.88
2017-05-22T07:21:13.013Z,1015.75
2017-05-22T07:22:13.026Z,1015.69
2017-05-22T07:23:13.039Z,1015.63
2017-05-22T07:24:13.057Z,1015.59
2017-05-22T07:25:13.062Z,1015.53
2017-05-22T07:26:13.075Z,1015.54
2017-05-22T07:27:13.088Z,1015.54
2017-05-22T07:28:13.103Z,1015.45
2017-05-22T07:29:13.112Z,1015.49
2017-05-22T07:30:13.125Z,1015.51
2017-05-22T07:31:13.137Z,1015.35
2017-05-22T07:32:13.152Z,1015.29
2017-05-22T07:33:13.162Z,1015.09
2017-05-22T07:34:13.175Z,1014.77
2017-05-22T07:35:13.189Z,1014.47
2017-05-22T07:36:13.201Z,1014.43
2017-05-22T07:37:13.211Z,1014.41
2017-05-22T07:38:13.223Z,1014.41
2017-05-22T07:39:13.283Z,1014.38
2017-05-22T07:40:13.244Z,1014.38
2017-05-22T07:41:13.254Z,1014.35
2017-05-22T07:42:13.264Z,1014.33
2017-05-22T07:43:13.276Z,1014.31
2017-05-22T07:44:13.303Z,1014.3
2017-05-22T07:45:13.345Z,1014.31
2017-05-22T07:46:13.305Z,1014.29
2017-05-22T07:47:13.314Z,1014.26
2017-05-22T07:48:13.324Z,1014.29
2017-05-22T07:49:13.335Z,1014.26
2017-05-22T07:50:13.343Z,1014.29
2017-05-22T07:51:13.354Z,1014.25
2017-05-22T07:52:13.362Z,1014.21
2017-05-22T07:53:13.373Z,1014.19
2017-05-22T07:54:13.383Z,1014.17
2017-05-22T07:55:13.393Z,1014.16
2017-05-22T07:56:13.401Z,1014.16
2017-05-22T07:57:13.411Z,1014.18
2017-05-22T07:58:13.420Z,1014.17
2017-05-22T07:59:13.481Z,1014.18
2017-05-22T08:00:13.437Z,1014.14
2017-05-22T08:01:13.449Z,1014.1
2017-05-22T08:02:13.457Z,1014.14
2017-05-22T08:03:13.465Z,1014.15
2017-05-22T08:04:13.476Z,1014.09
2017-05-22T08:05:13.484Z,1014.11
2017-05-22T08:06:13.493Z,1014.08
2017-05-22T08:07:13.502Z,1014.08
2017-05-22T08:08:13.513Z,1014.08
2017-05-22T08:09:13.520Z,1014.11
2017-05-22T08:10:13.528Z,1014.1
2017-05-22T08:11:13.588Z,1014.11
2017-05-22T08:12:13.549Z,1014.12
2017-05-22T08:13:13.557Z,1014.13
2017-05-22T08:14:13.565Z,1014.14
2017-05-22T08:15:13.581Z,1014.09
2017-05-22T08:16:13.583Z,1014.11
2017-05-22T08:17:13.592Z,1014.08
2017-05-22T08:18:13.600Z,1014.1
2017-05-22T08:19:13.609Z,1014.02
2017-05-22T08:20:13.618Z,1014.01
2017-05-22T08:21:13.630Z,1014.02
2017-05-22T08:22:13.688Z,1014.05
2017-05-22T08:23:13.646Z,1013.99
2017-05-22T08:24:13.656Z,1013.99
2017-05-22T08:25:13.664Z,1013.99
2017-05-22T08:26:13.674Z,1013.96
2017-05-22T08:27:13.681Z,1013.93
2017-05-22T08:28:13.690Z,1013.96
2017-05-22T08:29:13.748Z,1013.99
2017-05-22T08:30:13.708Z,1013.98
2017-05-22T08:31:13.717Z,1013.97
2017-05-22T08:32:13.725Z,1013.98
2017-05-22T08:33:13.735Z,1013.98
2017-05-22T08:34:13.743Z,1013.98
2017-05-22T08:35:13.752Z,1013.98
2017-05-22T08:36:13.761Z,1013.97
2017-05-22T08:37:13.770Z,1014.04
2017-05-22T08:38:13.779Z,1014
2017-05-22T08:39:13.788Z,1014.04
2017-05-22T08:40:13.797Z,1014.05
2017-05-22T08:41:13.856Z,1014.03
2017-05-22T08:42:13.812Z,1014.07
2017-05-22T08:43:13.825Z,1014.05
2017-05-22T08:44:13.830Z,1014.06
2017-05-22T08:45:13.840Z,1014.04
2017-05-22T08:46:13.848Z,1014.02
2017-05-22T08:47:13.857Z,1014.03
2017-05-22T08:48:13.867Z,1014.03
2017-05-22T08:49:13.876Z,1014.02
2017-05-22T08:50:13.884Z,1014.02
2017-05-22T08:51:13.893Z,1014
2017-05-22T08:52:13.903Z,1013.91
2017-05-22T08:53:13.960Z,1013.91
2017-05-22T08:54:13.919Z,1013.95
2017-05-22T08:55:13.930Z,1013.93
2017-05-22T08:56:13.937Z,1013.93
2017-05-22T08:57:13.945Z,1013.89
2017-05-22T08:58:13.954Z,1013.9
2017-05-22T08:59:13.963Z,1013.89
2017-05-22T09:00:13.971Z,1013.84
2017-05-22T09:01:13.980Z,1013.93
2017-05-22T09:02:13.990Z,1013.93
2017-05-22T09:03:13.998Z,1013.98
2017-05-22T09:04:14.008Z,1013.9
2017-05-22T09:05:14.018Z,1013.94
2017-05-22T09:06:14.075Z,1013.9
2017-05-22T09:07:14.036Z,1013.88
2017-05-22T09:08:14.043Z,1013.91
2017-05-22T09:09:14.052Z,1013.88
2017-05-22T09:10:14.062Z,1013.86
2017-05-22T09:11:14.069Z,1013.85
2017-05-22T09:12:14.078Z,1013.83
2017-05-22T09:13:14.138Z,1013.87
2017-05-22T09:14:14.098Z,1013.85
2017-05-22T09:15:14.105Z,1013.82
2017-05-22T09:16:14.114Z,1013.82
2017-05-22T09:17:14.123Z,1013.86
2017-05-22T09:18:14.133Z,1013.92
2017-05-22T09:19:14.196Z,1013.91
2017-05-22T09:20:14.149Z,1013.87
2017-05-22T09:21:14.159Z,1013.88
2017-05-22T09:22:14.167Z,1013.82
2017-05-22T09:23:14.176Z,1013.8
2017-05-22T09:24:14.199Z,1013.85
2017-05-22T09:25:14.245Z,1013.81
2017-05-22T09:26:14.203Z,1013.81
2017-05-22T09:27:14.211Z,1013.8
2017-05-22T09:28:14.222Z,1013.81
2017-05-22T09:29:14.231Z,1013.81
2017-05-22T09:30:14.289Z,1013.8
2017-05-22T09:31:14.248Z,1013.81
2017-05-22T09:32:14.260Z,1013.8
2017-05-22T09:33:14.267Z,1013.82
2017-05-22T09:34:14.277Z,1013.78
2017-05-22T09:35:14.285Z,1013.85
2017-05-22T09:36:14.294Z,1013.79
2017-05-22T09:37:14.303Z,1013.89
2017-05-22T09:38:14.314Z,1013.81
2017-05-22T09:39:14.321Z,1013.78
2017-05-22T09:40:14.329Z,1013.74
2017-05-22T09:41:14.339Z,1013.74
2017-05-22T09:42:14.348Z,1013.78
2017-05-22T09:43:14.359Z,1013.74
2017-05-22T09:44:14.366Z,1013.67
2017-05-22T09:45:14.374Z,1013.7
2017-05-22T09:46:14.384Z,1013.67
2017-05-22T09:47:14.392Z,1013.68
2017-05-22T09:48:14.405Z,1013.65
2017-05-22T09:49:14.413Z,1013.61
2017-05-22T09:50:14.420Z,1013.68
2017-05-22T09:51:14.431Z,1013.63
2017-05-22T09:52:14.438Z,1013.64
2017-05-22T09:53:14.506Z,1013.63
2017-05-22T09:54:14.457Z,1013.65
2017-05-22T09:55:14.469Z,1013.58
2017-05-22T09:56:14.474Z,1013.52
2017-05-22T09:57:14.534Z,1013.56
2017-05-22T09:58:14.494Z,1013.52
2017-05-22T09:59:14.502Z,1013.5
2017-05-22T10:00:14.512Z,1013.59
2017-05-22T10:01:14.571Z,1013.52
2017-05-22T10:02:14.530Z,1013.51
2017-05-22T10:03:14.539Z,1013.45
2017-05-22T10:04:14.550Z,1013.48
2017-05-22T10:05:14.607Z,1013.43
2017-05-22T10:06:14.568Z,1013.4
2017-05-22T10:07:14.575Z,1013.42
2017-05-22T10:08:14.586Z,1013.37
2017-05-22T10:09:14.594Z,1013.35
2017-05-22T10:10:14.602Z,1013.31
2017-05-22T10:11:14.612Z,1013.36
2017-05-22T10:12:14.622Z,1013.35
2017-05-22T10:13:14.629Z,1013.34
2017-05-22T10:14:14.639Z,1013.37
2017-05-22T10:15:14.649Z,1013.3
2017-05-22T10:16:14.708Z,1013.33
2017-05-22T10:17:14.665Z,1013.28
2017-05-22T10:18:14.674Z,1013.29
2017-05-22T10:19:14.685Z,1013.25
2017-05-22T10:20:14.694Z,1013.23
2017-05-22T10:21:14.703Z,1013.28
2017-05-22T10:22:14.713Z,1013.24
2017-05-22T10:23:14.771Z,1013.24
2017-05-22T10:24:14.729Z,1013.23
2017-05-22T10:25:14.738Z,1013.19
2017-05-22T10:26:14.750Z,1013.19
2017-05-22T10:27:14.757Z,1013.2
2017-05-22T10:28:14.766Z,1013.19
2017-05-22T10:29:14.775Z,1013.19
2017-05-22T10:30:14.784Z,1013.17
2017-05-22T10:31:14.796Z,1013.17
2017-05-22T10:32:14.802Z,1013.21
2017-05-22T10:33:14.812Z,1013.17
2017-05-22T10:34:14.820Z,1013.12
2017-05-22T10:35:14.828Z,1013.09
2017-05-22T10:36:14.888Z,1013.05
2017-05-22T10:37:14.847Z,1013.08
2017-05-22T10:38:14.858Z,1013.11
2017-05-22T10:39:14.864Z,1013.1
2017-05-22T10:40:14.874Z,1013.08
2017-05-22T10:41:14.882Z,1013.08
2017-05-22T10:42:14.892Z,1013.08
2017-05-22T10:43:14.902Z,1013.09
2017-05-22T10:44:14.910Z,1013.06
2017-05-22T10:45:14.969Z,1013.08
2017-05-22T10:46:14.927Z,1013.02
2017-05-22T10:47:14.991Z,1013.07
2017-05-22T10:48:14.947Z,1012.99
2017-05-22T10:49:14.956Z,1012.98
2017-05-22T10:50:14.964Z,1012.96
2017-05-22T10:51:14.973Z,1012.94
2017-05-22T10:52:14.983Z,1012.95
2017-05-22T10:53:14.993Z,1012.98
2017-05-22T10:54:15.001Z,1012.93
2017-05-22T10:55:15.009Z,1012.86
2017-05-22T10:56:15.018Z,1012.88
2017-05-22T10:57:15.078Z,1012.83
2017-05-22T10:58:15.035Z,1012.82
2017-05-22T10:59:15.045Z,1012.88
2017-05-22T11:00:15.054Z,1012.85
2017-05-22T11:01:15.063Z,1012.81
2017-05-22T11:02:15.072Z,1012.82
2017-05-22T11:03:15.081Z,1012.88
2017-05-22T11:04:15.090Z,1012.84
2017-05-22T11:05:15.100Z,1012.82
2017-05-22T11:06:15.109Z,1012.81
2017-05-22T11:07:15.122Z,1012.8
2017-05-22T11:08:15.177Z,1012.81
2017-05-22T11:09:15.137Z,1012.82
2017-05-22T11:10:15.145Z,1012.76
2017-05-22T11:11:15.156Z,1012.75
2017-05-22T11:12:15.163Z,1012.75
2017-05-22T11:13:15.191Z,1012.7
2017-05-22T11:14:15.182Z,1012.68
2017-05-22T11:15:15.190Z,1012.6
2017-05-22T11:16:15.200Z,1012.6
2017-05-22T11:17:15.510Z,1012.62
2017-05-22T11:18:15.216Z,1012.64
2017-05-22T11:19:15.226Z,1012.55
2017-05-22T11:20:15.236Z,1012.64
2017-05-22T11:21:15.246Z,1012.66
2017-05-22T11:22:15.257Z,1012.63
2017-05-22T11:23:15.261Z,1012.64
2017-05-22T11:24:15.271Z,1012.67
2017-05-22T11:25:15.330Z,1012.64
2017-05-22T11:26:15.288Z,1012.63
2017-05-22T11:27:15.297Z,1012.64
2017-05-22T11:28:15.305Z,1012.65
2017-05-22T11:29:15.366Z,1012.67
2017-05-22T11:30:15.323Z,1012.68
2017-05-22T11:31:15.332Z,1012.59
2017-05-22T11:32:15.343Z,1012.63
2017-05-22T11:33:15.352Z,1012.64
2017-05-22T11:34:15.360Z,1012.6
2017-05-22T11:35:15.369Z,1012.63
2017-05-22T11:36:15.378Z,1012.66
2017-05-22T11:37:15.443Z,1012.64
2017-05-22T11:38:15.395Z,1012.64
2017-05-22T11:39:15.404Z,1012.6
2017-05-22T11:40:15.414Z,1012.65
2017-05-22T11:41:15.421Z,1012.64
2017-05-22T11:42:15.481Z,1012.64
2017-05-22T11:43:15.439Z,1012.58
2017-05-22T11:44:15.450Z,1012.69
2017-05-22T11:45:15.458Z,1012.6
2017-05-22T11:46:15.469Z,1012.58
2017-05-22T11:47:15.479Z,1012.61
2017-05-22T11:48:15.486Z,1012.61
2017-05-22T11:49:15.495Z,1012.59
2017-05-22T11:50:15.502Z,1012.58
2017-05-22T11:51:15.514Z,1012.6
2017-05-22T11:52:15.519Z,1012.55
2017-05-22T11:53:15.542Z,1012.54
2017-05-22T11:54:15.538Z,1012.52
2017-05-22T11:55:15.546Z,1012.56
2017-05-22T11:56:15.556Z,1012.54
2017-05-22T11:57:15.565Z,1012.53
2017-05-22T11:58:15.574Z,1012.48
2017-05-22T11:59:15.581Z,1012.48
2017-05-22T12:00:15.641Z,1012.44
2017-05-22T12:01:15.601Z,1012.48
2017-05-22T12:02:15.610Z,1012.45
2017-05-22T12:03:15.617Z,1012.47
2017-05-22T12:04:15.627Z,1012.44
2017-05-22T12:05:15.637Z,1012.43
2017-05-22T12:06:15.645Z,1012.45
2017-05-22T12:07:15.653Z,1012.44
2017-05-22T12:08:15.663Z,1012.42